sensor_id;sensor_type;location;lat;lon;timestamp;pressure;altitude;pressure_sealevel;temperature;humidity
13029;BME280;6581;42.662;23.402;2023-04-30T00:01:58;95030.31;;;11.42;97.00
13029;BME280;6581;42.662;23.402;2023-04-30T00:04:25;95026.19;;;11.44;96.88
13029;BME280;6581;42.662;23.402;2023-04-30T00:06:52;95025.00;;;11.42;99.07
13029;BME280;6581;42.662;23.402;2023-04-30T00:09:20;95018.16;;;11.37;99.24
13029;BME280;6581;42.662;23.402;2023-04-30T00:11:47;95023.78;;;11.32;99.14
13029;BME280;6581;42.662;23.402;2023-04-30T00:14:17;95018.03;;;11.20;99.89
13029;BME280;6581;42.662;23.402;2023-04-30T00:17:09;95019.13;;;11.15;99.09
13029;BME280;6581;42.662;23.402;2023-04-30T00:20:02;95014.53;;;11.08;100.00
13029;BME280;6581;42.662;23.402;2023-04-30T00:22:29;95025.16;;;11.08;98.72
13029;BME280;6581;42.662;23.402;2023-04-30T00:24:58;95018.63;;;10.99;97.61
13029;BME280;6581;42.662;23.402;2023-04-30T00:27:26;95018.63;;;10.99;97.94
13029;BME280;6581;42.662;23.402;2023-04-30T00:29:54;95023.50;;;10.93;97.78
13029;BME280;6581;42.662;23.402;2023-04-30T00:32:21;95024.22;;;10.90;97.92
13029;BME280;6581;42.662;23.402;2023-04-30T00:34:49;95021.19;;;10.92;97.03
13029;BME280;6581;42.662;23.402;2023-04-30T00:37:16;95035.94;;;10.86;97.09
13029;BME280;6581;42.662;23.402;2023-04-30T00:39:43;95027.16;;;10.82;94.78
13029;BME280;6581;42.662;23.402;2023-04-30T00:42:10;95029.78;;;10.78;94.33
13029;BME280;6581;42.662;23.402;2023-04-30T00:44:37;95023.69;;;10.74;94.09
13029;BME280;6581;42.662;23.402;2023-04-30T00:47:06;95028.63;;;10.76;94.45
13029;BME280;6581;42.662;23.402;2023-04-30T00:49:32;95023.25;;;10.68;95.49
13029;BME280;6581;42.662;23.402;2023-04-30T00:52:00;95025.88;;;10.65;93.61
13029;BME280;6581;42.662;23.402;2023-04-30T00:54:27;95025.88;;;10.65;94.30
13029;BME280;6581;42.662;23.402;2023-04-30T00:56:54;95025.44;;;10.59;95.27
13029;BME280;6581;42.662;23.402;2023-04-30T00:59:21;95025.47;;;10.63;95.18
13029;BME280;6581;42.662;23.402;2023-04-30T01:01:48;95019.78;;;10.61;96.45
13029;BME280;6581;42.662;23.402;2023-04-30T01:04:17;95021.22;;;10.55;96.42
13029;BME280;6581;42.662;23.402;2023-04-30T01:06:45;95025.38;;;10.52;96.69
13029;BME280;6581;42.662;23.402;2023-04-30T01:09:12;95020.72;;;10.42;98.21
13029;BME280;6581;42.662;23.402;2023-04-30T01:11:48;95009.31;;;10.38;100.00
13029;BME280;6581;42.662;23.402;2023-04-30T01:14:24;95020.59;;;10.32;100.00
13029;BME280;6581;42.662;23.402;2023-04-30T01:16:59;95024.41;;;10.34;100.00
13029;BME280;6581;42.662;23.402;2023-04-30T01:19:35;95019.81;;;10.31;100.00
13029;BME280;6581;42.662;23.402;2023-04-30T01:22:04;95025.47;;;10.26;100.00
13029;BME280;6581;42.662;23.402;2023-04-30T01:25:10;95026.91;;;10.20;100.00
13029;BME280;6581;42.662;23.402;2023-04-30T01:28:06;95024.53;;;10.15;100.00
13029;BME280;6581;42.662;23.402;2023-04-30T01:30:35;95021.88;;;10.15;99.61
13029;BME280;6581;42.662;23.402;2023-04-30T01:33:02;95019.47;;;10.03;95.19
13029;BME280;6581;42.662;23.402;2023-04-30T01:35:53;95029.38;;;10.09;94.74
13029;BME280;6581;42.662;23.402;2023-04-30T01:38:31;95020.94;;;10.00;95.26
13029;BME280;6581;42.662;23.402;2023-04-30T01:41:09;95023.56;;;9.97;95.52
13029;BME280;6581;42.662;23.402;2023-04-30T01:43:44;95025.44;;;9.96;96.47
13029;BME280;6581;42.662;23.402;2023-04-30T01:46:20;95021.66;;;9.97;96.62
13029;BME280;6581;42.662;23.402;2023-04-30T01:48:56;95026.63;;;9.99;95.76
13029;BME280;6581;42.662;23.402;2023-04-30T01:51:34;95009.56;;;9.96;95.85
13029;BME280;6581;42.662;23.402;2023-04-30T01:54:14;95020.97;;;10.04;95.41
13029;BME280;6581;42.662;23.402;2023-04-30T01:56:46;95018.75;;;10.06;95.21
13029;BME280;6581;42.662;23.402;2023-04-30T01:59:18;95016.06;;;10.02;95.49
13029;BME280;6581;42.662;23.402;2023-04-30T02:01:47;95021.72;;;10.01;94.56
13029;BME280;6581;42.662;23.402;2023-04-30T02:04:14;95020.97;;;10.04;94.82
13029;BME280;6581;42.662;23.402;2023-04-30T02:06:41;95010.47;;;10.07;95.04
13029;BME280;6581;42.662;23.402;2023-04-30T02:09:08;95019.91;;;10.08;94.91
13029;BME280;6581;42.662;23.402;2023-04-30T02:11:35;95022.97;;;10.10;94.38
13029;BME280;6581;42.662;23.402;2023-04-30T02:14:02;95021.75;;;10.04;93.23
13029;BME280;6581;42.662;23.402;2023-04-30T02:16:31;95023.72;;;10.11;92.05
13029;BME280;6581;42.662;23.402;2023-04-30T02:18:59;95020.59;;;10.02;92.71
13029;BME280;6581;42.662;23.402;2023-04-30T02:21:26;95019.25;;;9.85;92.60
13029;BME280;6581;42.662;23.402;2023-04-30T02:23:53;95016.84;;;9.76;93.61
13029;BME280;6581;42.662;23.402;2023-04-30T02:26:20;95019.16;;;9.78;95.03
13029;BME280;6581;42.662;23.402;2023-04-30T02:28:47;95025.81;;;9.68;92.31
13029;BME280;6581;42.662;23.402;2023-04-30T02:31:14;95026.19;;;9.67;94.33
13029;BME280;6581;42.662;23.402;2023-04-30T02:33:46;95017.88;;;9.68;93.14
13029;BME280;6581;42.662;23.402;2023-04-30T02:36:13;95019.25;;;9.85;90.03
13029;BME280;6581;42.662;23.402;2023-04-30T02:38:40;95023.31;;;9.79;90.46
13029;BME280;6581;42.662;23.402;2023-04-30T02:41:08;95022.13;;;9.76;90.32
13029;BME280;6581;42.662;23.402;2023-04-30T02:43:35;95026.31;;;9.77;89.67
13029;BME280;6581;42.662;23.402;2023-04-30T02:46:02;95021.34;;;9.72;89.82
13029;BME280;6581;42.662;23.402;2023-04-30T02:48:29;95022.78;;;9.66;91.22
13029;BME280;6581;42.662;23.402;2023-04-30T02:50:57;95030.91;;;9.54;92.74
13029;BME280;6581;42.662;23.402;2023-04-30T02:53:24;95036.91;;;9.51;92.88
13029;BME280;6581;42.662;23.402;2023-04-30T02:55:51;95033.16;;;9.52;93.43
13029;BME280;6581;42.662;23.402;2023-04-30T02:58:18;95031.41;;;9.63;94.54
13029;BME280;6581;42.662;23.402;2023-04-30T03:00:45;95034.56;;;9.72;93.77
13029;BME280;6581;42.662;23.402;2023-04-30T03:03:12;95039.59;;;9.81;93.06
13029;BME280;6581;42.662;23.402;2023-04-30T03:05:39;95040.03;;;9.87;93.99
13029;BME280;6581;42.662;23.402;2023-04-30T03:08:09;95041.72;;;9.98;93.61
13029;BME280;6581;42.662;23.402;2023-04-30T03:10:37;95042.06;;;9.97;92.26
13029;BME280;6581;42.662;23.402;2023-04-30T03:13:04;95047.00;;;9.98;92.34
13029;BME280;6581;42.662;23.402;2023-04-30T03:15:33;95047.78;;;9.99;92.96
13029;BME280;6581;42.662;23.402;2023-04-30T03:18:00;95041.31;;;9.96;93.86
13029;BME280;6581;42.662;23.402;2023-04-30T03:20:27;95050.81;;;10.01;93.14
13029;BME280;6581;42.662;23.402;2023-04-30T03:22:54;95046.63;;;10.00;93.52
13029;BME280;6581;42.662;23.402;2023-04-30T03:25:22;95049.69;;;10.02;92.20
13029;BME280;6581;42.662;23.402;2023-04-30T03:27:50;95053.97;;;10.10;90.44
13029;BME280;6581;42.662;23.402;2023-04-30T03:30:17;95045.56;;;10.04;90.45
13029;BME280;6581;42.662;23.402;2023-04-30T03:32:44;95049.47;;;10.14;89.21
13029;BME280;6581;42.662;23.402;2023-04-30T03:35:11;95048.22;;;10.04;90.38
13029;BME280;6581;42.662;23.402;2023-04-30T03:37:38;95052.19;;;9.91;92.06
13029;BME280;6581;42.662;23.402;2023-04-30T03:40:06;95046.94;;;9.95;93.92
13029;BME280;6581;42.662;23.402;2023-04-30T03:42:35;95061.41;;;10.01;90.28
13029;BME280;6581;42.662;23.402;2023-04-30T03:45:02;95064.53;;;10.10;88.40
13029;BME280;6581;42.662;23.402;2023-04-30T03:47:29;95069.22;;;10.16;87.31
13029;BME280;6581;42.662;23.402;2023-04-30T03:49:57;95073.41;;;10.21;87.34
13029;BME280;6581;42.662;23.402;2023-04-30T03:52:24;95075.94;;;10.14;90.76
13029;BME280;6581;42.662;23.402;2023-04-30T03:54:53;95072.09;;;10.08;91.07
13029;BME280;6581;42.662;23.402;2023-04-30T03:57:20;95073.59;;;10.09;90.75
13029;BME280;6581;42.662;23.402;2023-04-30T03:59:49;95073.53;;;10.02;90.83
13029;BME280;6581;42.662;23.402;2023-04-30T04:02:16;95066.66;;;9.97;91.22
13029;BME280;6581;42.662;23.402;2023-04-30T04:04:43;95076.97;;;10.06;91.14
13029;BME280;6581;42.662;23.402;2023-04-30T04:07:11;95076.69;;;10.14;89.34
13029;BME280;6581;42.662;23.402;2023-04-30T04:09:38;95075.16;;;10.13;88.86
13029;BME280;6581;42.662;23.402;2023-04-30T04:12:05;95073.84;;;10.27;89.39
13029;BME280;6581;42.662;23.402;2023-04-30T04:14:32;95081.97;;;10.41;89.20
13029;BME280;6581;42.662;23.402;2023-04-30T04:17:01;95079.69;;;10.39;90.65
13029;BME280;6581;42.662;23.402;2023-04-30T04:19:30;95079.31;;;10.41;89.97
13029;BME280;6581;42.662;23.402;2023-04-30T04:21:58;95080.34;;;10.62;89.62
13029;BME280;6581;42.662;23.402;2023-04-30T04:24:26;95085.31;;;10.68;88.35
13029;BME280;6581;42.662;23.402;2023-04-30T04:26:53;95079.66;;;10.69;88.17
13029;BME280;6581;42.662;23.402;2023-04-30T04:29:20;95089.88;;;10.71;89.81
13029;BME280;6581;42.662;23.402;2023-04-30T04:31:48;95087.72;;;10.80;90.80
13029;BME280;6581;42.662;23.402;2023-04-30T04:34:17;95082.44;;;10.83;91.22
13029;BME280;6581;42.662;23.402;2023-04-30T04:36:45;95084.34;;;10.86;88.89
13029;BME280;6581;42.662;23.402;2023-04-30T04:39:13;95093.53;;;10.96;87.93
13029;BME280;6581;42.662;23.402;2023-04-30T04:42:05;95093.94;;;10.94;82.93
13029;BME280;6581;42.662;23.402;2023-04-30T04:44:32;95092.41;;;10.93;82.70
13029;BME280;6581;42.662;23.402;2023-04-30T04:47:00;95094.00;;;11.05;81.80
13029;BME280;6581;42.662;23.402;2023-04-30T04:49:31;95100.03;;;10.98;82.43
13029;BME280;6581;42.662;23.402;2023-04-30T04:51:58;95100.94;;;11.13;82.26
13029;BME280;6581;42.662;23.402;2023-04-30T04:54:27;95108.25;;;11.27;80.73
13029;BME280;6581;42.662;23.402;2023-04-30T05:00:11;95105.16;;;11.21;80.98
13029;BME280;6581;42.662;23.402;2023-04-30T05:02:39;95115.03;;;11.24;80.64
13029;BME280;6581;42.662;23.402;2023-04-30T05:05:08;95117.72;;;11.28;80.76
13029;BME280;6581;42.662;23.402;2023-04-30T05:07:36;95121.66;;;11.44;80.98
13029;BME280;6581;42.662;23.402;2023-04-30T05:10:04;95120.56;;;11.49;80.72
13029;BME280;6581;42.662;23.402;2023-04-30T05:12:31;95117.94;;;11.52;84.27
13029;BME280;6581;42.662;23.402;2023-04-30T05:14:58;95116.72;;;11.46;86.79
13029;BME280;6581;42.662;23.402;2023-04-30T05:17:26;95112.16;;;11.43;87.46
13029;BME280;6581;42.662;23.402;2023-04-30T05:19:53;95120.94;;;11.51;86.01
13029;BME280;6581;42.662;23.402;2023-04-30T05:22:22;95119.13;;;11.59;84.88
13029;BME280;6581;42.662;23.402;2023-04-30T05:24:49;95113.84;;;11.62;85.13
13029;BME280;6581;42.662;23.402;2023-04-30T05:27:18;95118.41;;;11.65;84.98
13029;BME280;6581;42.662;23.402;2023-04-30T05:29:45;95109.63;;;11.57;85.02
13029;BME280;6581;42.662;23.402;2023-04-30T05:32:12;95114.34;;;11.75;85.15
13029;BME280;6581;42.662;23.402;2023-04-30T05:34:39;95116.31;;;11.85;86.21
13029;BME280;6581;42.662;23.402;2023-04-30T05:37:05;95115.91;;;11.83;88.23
13029;BME280;6581;42.662;23.402;2023-04-30T05:39:34;95120.06;;;11.77;87.84
13029;BME280;6581;42.662;23.402;2023-04-30T05:42:01;95113.34;;;11.93;87.13
13029;BME280;6581;42.662;23.402;2023-04-30T05:44:28;95117.22;;;12.07;87.54
13029;BME280;6581;42.662;23.402;2023-04-30T05:46:55;95118.41;;;12.16;86.80
13029;BME280;6581;42.662;23.402;2023-04-30T05:49:22;95109.31;;;12.17;87.84
13029;BME280;6581;42.662;23.402;2023-04-30T05:51:49;95113.09;;;12.16;88.29
13029;BME280;6581;42.662;23.402;2023-04-30T05:54:16;95107.41;;;12.14;88.55
13029;BME280;6581;42.662;23.402;2023-04-30T05:56:45;95113.84;;;12.10;89.08
13029;BME280;6581;42.662;23.402;2023-04-30T05:59:12;95117.63;;;12.16;90.22
13029;BME280;6581;42.662;23.402;2023-04-30T06:01:39;95121.03;;;12.09;90.89
13029;BME280;6581;42.662;23.402;2023-04-30T06:04:06;95120.69;;;12.14;91.67
13029;BME280;6581;42.662;23.402;2023-04-30T06:06:33;95116.53;;;12.24;92.15
13029;BME280;6581;42.662;23.402;2023-04-30T06:09:01;95118.13;;;12.32;91.56
13029;BME280;6581;42.662;23.402;2023-04-30T06:11:28;95128.34;;;12.33;90.61
13029;BME280;6581;42.662;23.402;2023-04-30T06:13:57;95125.75;;;12.40;90.55
13029;BME280;6581;42.662;23.402;2023-04-30T06:16:24;95123.88;;;12.44;87.73
13029;BME280;6581;42.662;23.402;2023-04-30T06:18:51;95128.50;;;12.62;87.35
13029;BME280;6581;42.662;23.402;2023-04-30T06:21:18;95131.56;;;12.71;87.36
13029;BME280;6581;42.662;23.402;2023-04-30T06:23:46;95132.75;;;12.80;86.39
13029;BME280;6581;42.662;23.402;2023-04-30T06:26:12;95137.75;;;13.00;85.14
13029;BME280;6581;42.662;23.402;2023-04-30T06:28:40;95136.97;;;12.92;85.07
13029;BME280;6581;42.662;23.402;2023-04-30T06:31:09;95130.97;;;13.13;83.65
13029;BME280;6581;42.662;23.402;2023-04-30T06:33:36;95131.38;;;13.25;83.37
13029;BME280;6581;42.662;23.402;2023-04-30T06:36:03;95128.75;;;13.47;82.40
13029;BME280;6581;42.662;23.402;2023-04-30T06:38:30;95131.44;;;13.64;80.47
13029;BME280;6581;42.662;23.402;2023-04-30T06:40:57;95140.94;;;13.69;79.25
13029;BME280;6581;42.662;23.402;2023-04-30T06:43:24;95137.13;;;13.63;79.57
13029;BME280;6581;42.662;23.402;2023-04-30T06:45:51;95141.69;;;13.66;79.71
13029;BME280;6581;42.662;23.402;2023-04-30T06:48:20;95132.94;;;13.69;79.70
13029;BME280;6581;42.662;23.402;2023-04-30T06:50:47;95137.91;;;13.88;79.92
13029;BME280;6581;42.662;23.402;2023-04-30T06:53:15;95139.78;;;13.88;77.39
13029;BME280;6581;42.662;23.402;2023-04-30T06:55:43;95132.91;;;14.15;76.06
13029;BME280;6581;42.662;23.402;2023-04-30T06:58:11;95140.88;;;14.40;74.73
13029;BME280;6581;42.662;23.402;2023-04-30T07:00:39;95141.59;;;14.54;73.42
13029;BME280;6581;42.662;23.402;2023-04-30T07:03:06;95133.28;;;14.38;71.03
13029;BME280;6581;42.662;23.402;2023-04-30T07:05:35;95132.03;;;14.64;70.32
13029;BME280;6581;42.662;23.402;2023-04-30T07:08:02;95137.25;;;14.96;69.21
13029;BME280;6581;42.662;23.402;2023-04-30T07:10:55;95138.97;;;15.27;69.16
13029;BME280;6581;42.662;23.402;2023-04-30T07:13:22;95135.97;;;15.25;68.13
13029;BME280;6581;42.662;23.402;2023-04-30T07:15:50;95148.91;;;15.30;67.85
13029;BME280;6581;42.662;23.402;2023-04-30T07:18:17;95145.47;;;15.30;68.55
13029;BME280;6581;42.662;23.402;2023-04-30T07:20:45;95147.72;;;15.31;66.79
13029;BME280;6581;42.662;23.402;2023-04-30T07:23:12;95138.50;;;15.43;67.22
13029;BME280;6581;42.662;23.402;2023-04-30T07:25:39;95138.88;;;15.48;68.22
13029;BME280;6581;42.662;23.402;2023-04-30T07:28:07;95137.63;;;15.67;66.75
13029;BME280;6581;42.662;23.402;2023-04-30T07:30:34;95140.56;;;15.80;66.74
13029;BME280;6581;42.662;23.402;2023-04-30T07:33:01;95141.09;;;15.61;67.38
13029;BME280;6581;42.662;23.402;2023-04-30T07:35:28;95144.22;;;15.48;67.21
13029;BME280;6581;42.662;23.402;2023-04-30T07:37:57;95145.41;;;15.37;67.71
13029;BME280;6581;42.662;23.402;2023-04-30T07:40:24;95145.13;;;15.21;67.72
13029;BME280;6581;42.662;23.402;2023-04-30T07:42:51;95144.72;;;15.22;68.55
13029;BME280;6581;42.662;23.402;2023-04-30T07:45:18;95153.09;;;15.28;68.56
13029;BME280;6581;42.662;23.402;2023-04-30T07:47:45;95150.00;;;15.33;68.43
13029;BME280;6581;42.662;23.402;2023-04-30T07:50:12;95148.09;;;15.33;67.20
13029;BME280;6581;42.662;23.402;2023-04-30T07:52:39;95144.56;;;15.54;66.95
13029;BME280;6581;42.662;23.402;2023-04-30T07:55:09;95146.03;;;15.62;66.76
13029;BME280;6581;42.662;23.402;2023-04-30T07:57:36;95142.22;;;15.63;68.44
13029;BME280;6581;42.662;23.402;2023-04-30T08:00:04;95152.44;;;15.75;68.26
13029;BME280;6581;42.662;23.402;2023-04-30T08:02:38;95143.94;;;15.87;66.38
13029;BME280;6581;42.662;23.402;2023-04-30T08:05:05;95148.75;;;16.07;65.11
13029;BME280;6581;42.662;23.402;2023-04-30T08:07:32;95148.41;;;16.42;64.13
13029;BME280;6581;42.662;23.402;2023-04-30T08:10:00;95159.38;;;16.89;60.55
13029;BME280;6581;42.662;23.402;2023-04-30T08:12:28;95146.22;;;18.08;55.70
13029;BME280;6581;42.662;23.402;2023-04-30T08:14:59;95149.38;;;18.27;53.50
13029;BME280;6581;42.662;23.402;2023-04-30T08:17:26;95148.31;;;18.21;52.97
13029;BME280;6581;42.662;23.402;2023-04-30T08:19:53;95147.00;;;18.29;54.26
13029;BME280;6581;42.662;23.402;2023-04-30T08:22:21;95148.13;;;18.54;55.58
13029;BME280;6581;42.662;23.402;2023-04-30T08:24:48;95144.44;;;18.45;52.60
13029;BME280;6581;42.662;23.402;2023-04-30T08:27:15;95145.09;;;18.06;53.04
13029;BME280;6581;42.662;23.402;2023-04-30T08:29:45;95147.75;;;17.86;54.98
13029;BME280;6581;42.662;23.402;2023-04-30T08:32:12;95156.91;;;17.62;55.97
13029;BME280;6581;42.662;23.402;2023-04-30T08:34:39;95149.22;;;17.07;58.01
13029;BME280;6581;42.662;23.402;2023-04-30T08:37:33;95147.88;;;16.92;60.89
13029;BME280;6581;42.662;23.402;2023-04-30T08:40:01;95155.44;;;16.66;59.18
13029;BME280;6581;42.662;23.402;2023-04-30T08:42:30;95152.03;;;16.62;61.06
13029;BME280;6581;42.662;23.402;2023-04-30T08:44:59;95147.16;;;16.50;62.96
13029;BME280;6581;42.662;23.402;2023-04-30T08:47:28;95146.25;;;15.85;63.34
13029;BME280;6581;42.662;23.402;2023-04-30T08:49:55;95148.63;;;15.76;65.32
13029;BME280;6581;42.662;23.402;2023-04-30T08:52:22;95140.31;;;15.60;69.11
13029;BME280;6581;42.662;23.402;2023-04-30T08:54:51;95142.50;;;15.76;65.63
13029;BME280;6581;42.662;23.402;2023-04-30T08:57:20;95140.97;;;15.78;64.55
13029;BME280;6581;42.662;23.402;2023-04-30T08:59:47;95142.78;;;15.88;61.89
13029;BME280;6581;42.662;23.402;2023-04-30T09:02:16;95138.00;;;16.10;62.91
13029;BME280;6581;42.662;23.402;2023-04-30T09:04:44;95127.94;;;16.25;60.77
13029;BME280;6581;42.662;23.402;2023-04-30T09:07:12;95133.66;;;16.64;61.17
13029;BME280;6581;42.662;23.402;2023-04-30T09:09:39;95138.16;;;16.74;58.11
13029;BME280;6581;42.662;23.402;2023-04-30T09:12:11;95123.19;;;16.80;58.85
13029;BME280;6581;42.662;23.402;2023-04-30T09:14:39;95127.91;;;17.00;56.97
13029;BME280;6581;42.662;23.402;2023-04-30T09:17:07;95124.59;;;16.89;55.46
13029;BME280;6581;42.662;23.402;2023-04-30T09:19:36;95113.59;;;17.13;59.94
13029;BME280;6581;42.662;23.402;2023-04-30T09:22:27;95112.56;;;17.31;54.94
13029;BME280;6581;42.662;23.402;2023-04-30T09:24:55;95095.53;;;17.44;54.66
13029;BME280;6581;42.662;23.402;2023-04-30T09:27:48;95101.19;;;17.77;52.89
13029;BME280;6581;42.662;23.402;2023-04-30T09:30:32;95092.88;;;17.71;49.45
13029;BME280;6581;42.662;23.402;2023-04-30T09:32:59;95101.75;;;17.88;49.39
13029;BME280;6581;42.662;23.402;2023-04-30T09:35:32;95096.13;;;17.59;49.42
13029;BME280;6581;42.662;23.402;2023-04-30T09:37:59;95096.47;;;17.34;49.98
13029;BME280;6581;42.662;23.402;2023-04-30T09:40:37;95088.59;;;17.73;51.15
13029;BME280;6581;42.662;23.402;2023-04-30T09:43:05;95086.47;;;18.31;50.13
13029;BME280;6581;42.662;23.402;2023-04-30T09:45:40;95092.09;;;18.17;45.07
13029;BME280;6581;42.662;23.402;2023-04-30T09:48:08;95083.56;;;18.22;44.89
13029;BME280;6581;42.662;23.402;2023-04-30T09:50:39;95074.97;;;18.31;46.66
13029;BME280;6581;42.662;23.402;2023-04-30T09:53:07;95078.19;;;18.65;46.13
13029;BME280;6581;42.662;23.402;2023-04-30T09:55:35;95080.72;;;18.72;45.64
13029;BME280;6581;42.662;23.402;2023-04-30T09:58:04;95074.88;;;18.77;45.17
13029;BME280;6581;42.662;23.402;2023-04-30T10:00:33;95081.00;;;19.14;45.37
13029;BME280;6581;42.662;23.402;2023-04-30T10:03:05;95076.56;;;19.39;44.25
13029;BME280;6581;42.662;23.402;2023-04-30T10:05:35;95081.06;;;19.62;45.37
13029;BME280;6581;42.662;23.402;2023-04-30T10:08:06;95079.78;;;19.67;43.43
13029;BME280;6581;42.662;23.402;2023-04-30T10:10:37;95069.09;;;19.15;45.31
13029;BME280;6581;42.662;23.402;2023-04-30T10:13:10;95062.69;;;19.09;44.42
13029;BME280;6581;42.662;23.402;2023-04-30T10:15:46;95065.03;;;19.07;45.32
13029;BME280;6581;42.662;23.402;2023-04-30T10:18:18;95060.09;;;19.21;44.58
13029;BME280;6581;42.662;23.402;2023-04-30T10:20:47;95054.13;;;19.66;43.99
13029;BME280;6581;42.662;23.402;2023-04-30T10:23:16;95051.63;;;19.39;45.31
13029;BME280;6581;42.662;23.402;2023-04-30T10:25:43;95053.75;;;19.31;43.41
13029;BME280;6581;42.662;23.402;2023-04-30T10:28:11;95055.72;;;18.36;46.63
13029;BME280;6581;42.662;23.402;2023-04-30T10:30:40;95047.94;;;17.79;50.17
13029;BME280;6581;42.662;23.402;2023-04-30T10:33:22;95069.19;;;17.16;52.67
13029;BME280;6581;42.662;23.402;2023-04-30T10:35:56;95089.25;;;17.01;55.08
13029;BME280;6581;42.662;23.402;2023-04-30T10:38:28;95095.34;;;17.05;57.46
13029;BME280;6581;42.662;23.402;2023-04-30T10:40:58;95107.38;;;16.56;60.33
13029;BME280;6581;42.662;23.402;2023-04-30T10:43:28;95091.19;;;16.36;61.84
13029;BME280;6581;42.662;23.402;2023-04-30T10:45:56;95105.13;;;16.17;63.26
13029;BME280;6581;42.662;23.402;2023-04-30T10:48:24;95116.69;;;15.62;67.45
13029;BME280;6581;42.662;23.402;2023-04-30T10:50:55;95110.84;;;15.16;73.55
13029;BME280;6581;42.662;23.402;2023-04-30T10:53:23;95107.13;;;15.02;78.10
13029;BME280;6581;42.662;23.402;2023-04-30T10:55:57;95103.63;;;15.16;80.33
13029;BME280;6581;42.662;23.402;2023-04-30T10:58:26;95094.34;;;15.31;74.83
13029;BME280;6581;42.662;23.402;2023-04-30T11:01:05;95090.28;;;15.68;74.85
13029;BME280;6581;42.662;23.402;2023-04-30T11:03:34;95090.81;;;15.96;74.21
13029;BME280;6581;42.662;23.402;2023-04-30T11:06:07;95093.22;;;16.25;71.52
13029;BME280;6581;42.662;23.402;2023-04-30T11:08:38;95093.59;;;16.61;61.87
13029;BME280;6581;42.662;23.402;2023-04-30T11:11:08;95094.16;;;17.06;61.40
13029;BME280;6581;42.662;23.402;2023-04-30T11:13:39;95094.69;;;17.24;60.35
13029;BME280;6581;42.662;23.402;2023-04-30T11:16:33;95080.94;;;17.76;59.85
13029;BME280;6581;42.662;23.402;2023-04-30T11:19:05;95083.81;;;18.08;56.98
13029;BME280;6581;42.662;23.402;2023-04-30T11:21:32;95078.38;;;18.54;56.36
13029;BME280;6581;42.662;23.402;2023-04-30T11:24:02;95077.19;;;18.95;51.66
13029;BME280;6581;42.662;23.402;2023-04-30T11:27:03;95071.91;;;19.08;49.43
13029;BME280;6581;42.662;23.402;2023-04-30T11:29:30;95080.88;;;18.65;49.96
13029;BME280;6581;42.662;23.402;2023-04-30T11:31:59;95076.28;;;18.42;52.18
13029;BME280;6581;42.662;23.402;2023-04-30T11:34:26;95082.50;;;17.96;52.30
13029;BME280;6581;42.662;23.402;2023-04-30T11:36:57;95089.09;;;17.68;51.61
13029;BME280;6581;42.662;23.402;2023-04-30T11:39:25;95092.09;;;17.44;53.43
13029;BME280;6581;42.662;23.402;2023-04-30T11:41:55;95099.84;;;17.11;56.25
13029;BME280;6581;42.662;23.402;2023-04-30T11:44:25;95092.06;;;16.60;61.83
13029;BME280;6581;42.662;23.402;2023-04-30T11:46:52;95088.00;;;16.11;66.03
13029;BME280;6581;42.662;23.402;2023-04-30T11:49:20;95086.75;;;15.81;71.06
13029;BME280;6581;42.662;23.402;2023-04-30T11:51:49;95088.00;;;15.70;72.84
13029;BME280;6581;42.662;23.402;2023-04-30T11:54:17;95088.38;;;15.72;72.64
13029;BME280;6581;42.662;23.402;2023-04-30T11:56:45;95078.41;;;15.76;76.08
13029;BME280;6581;42.662;23.402;2023-04-30T11:59:16;95080.50;;;15.95;75.02
13029;BME280;6581;42.662;23.402;2023-04-30T12:01:43;95081.59;;;16.01;71.44
13029;BME280;6581;42.662;23.402;2023-04-30T12:04:10;95081.19;;;16.06;68.49
13029;BME280;6581;42.662;23.402;2023-04-30T12:06:37;95078.69;;;16.26;70.43
13029;BME280;6581;42.662;23.402;2023-04-30T12:09:04;95077.06;;;16.35;73.64
13029;BME280;6581;42.662;23.402;2023-04-30T12:11:34;95082.84;;;16.30;74.59
13029;BME280;6581;42.662;23.402;2023-04-30T12:14:03;95083.19;;;16.36;72.93
13029;BME280;6581;42.662;23.402;2023-04-30T12:16:41;95075.25;;;16.25;73.00
13029;BME280;6581;42.662;23.402;2023-04-30T12:19:09;95081.13;;;16.47;73.34
13029;BME280;6581;42.662;23.402;2023-04-30T12:21:36;95078.94;;;16.38;70.35
13029;BME280;6581;42.662;23.402;2023-04-30T12:24:05;95081.03;;;16.20;70.18
13029;BME280;6581;42.662;23.402;2023-04-30T12:26:35;95099.91;;;16.03;69.55
13029;BME280;6581;42.662;23.402;2023-04-30T12:29:05;95112.56;;;15.95;71.58
13029;BME280;6581;42.662;23.402;2023-04-30T12:31:35;95118.91;;;15.71;75.60
13029;BME280;6581;42.662;23.402;2023-04-30T12:34:04;95115.41;;;15.19;75.95
13029;BME280;6581;42.662;23.402;2023-04-30T12:36:32;95114.84;;;14.79;77.68
13029;BME280;6581;42.662;23.402;2023-04-30T12:39:05;95103.94;;;14.42;83.81
13029;BME280;6581;42.662;23.402;2023-04-30T12:41:36;95092.56;;;14.24;90.51
13029;BME280;6581;42.662;23.402;2023-04-30T12:44:17;95091.81;;;14.12;92.21
13029;BME280;6581;42.662;23.402;2023-04-30T12:46:44;95092.94;;;14.18;95.39
13029;BME280;6581;42.662;23.402;2023-04-30T12:49:22;95089.09;;;14.30;97.35
13029;BME280;6581;42.662;23.402;2023-04-30T12:52:15;95081.44;;;14.53;99.79
13029;BME280;6581;42.662;23.402;2023-04-30T12:55:14;95080.88;;;14.90;97.20
13029;BME280;6581;42.662;23.402;2023-04-30T12:58:07;95088.63;;;15.33;91.89
13029;BME280;6581;42.662;23.402;2023-04-30T13:00:45;95087.38;;;15.48;89.10
13029;BME280;6581;42.662;23.402;2023-04-30T13:03:37;95076.41;;;15.87;89.11
13029;BME280;6581;42.662;23.402;2023-04-30T13:06:06;95072.91;;;16.31;85.49
13029;BME280;6581;42.662;23.402;2023-04-30T13:08:35;95080.47;;;17.00;83.71
13029;BME280;6581;42.662;23.402;2023-04-30T13:11:02;95077.88;;;17.50;76.57
13029;BME280;6581;42.662;23.402;2023-04-30T13:13:29;95074.88;;;17.95;74.16
13029;BME280;6581;42.662;23.402;2023-04-30T13:15:56;95072.22;;;18.14;71.27
13029;BME280;6581;42.662;23.402;2023-04-30T13:18:23;95078.53;;;18.24;68.17